sensor_id;sensor_type;location;lat;lon;timestamp;pressure;altitude;pressure_sealevel;temperature;humidity
40315;BME280;26021;45.640;11.302;2023-02-14T00:01:44;100612.38;;;2.66;100.00
40315;BME280;26021;45.640;11.302;2023-02-14T00:04:11;100601.81;;;2.66;100.00
40315;BME280;26021;45.640;11.302;2023-02-14T00:06:37;100595.59;;;2.67;100.00
40315;BME280;26021;45.640;11.302;2023-02-14T00:09:09;100604.09;;;2.40;100.00
40315;BME280;26021;45.640;11.302;2023-02-14T00:11:35;100590.97;;;2.39;100.00
40315;BME280;26021;45.640;11.302;2023-02-14T00:14:01;100544.78;;;1.97;100.00
40315;BME280;26021;45.640;11.302;2023-02-14T00:16:45;100534.75;;;2.04;100.00
40315;BME280;26021;45.640;11.302;2023-02-14T00:19:13;100581.84;;;2.44;100.00
40315;BME280;26021;45.640;11.302;2023-02-14T00:21:39;100582.22;;;2.54;100.00
40315;BME280;26021;45.640;11.302;2023-02-14T00:24:07;100272.06;;;0.69;100.00
40315;BME280;26021;45.640;11.302;2023-02-14T00:26:33;100580.84;;;2.63;100.00
40315;BME280;26021;45.640;11.302;2023-02-14T00:28:59;100578.69;;;2.38;100.00
40315;BME280;26021;45.640;11.302;2023-02-14T00:31:24;100573.84;;;2.46;100.00
40315;BME280;26021;45.640;11.302;2023-02-14T00:33:49;100574.00;;;2.43;100.00
40315;BME280;26021;45.640;11.302;2023-02-14T00:36:16;100566.94;;;2.43;100.00
40315;BME280;26021;45.640;11.302;2023-02-14T00:38:43;100565.31;;;2.41;100.00
40315;BME280;26021;45.640;11.302;2023-02-14T00:41:08;100568.28;;;2.35;100.00
40315;BME280;26021;45.640;11.302;2023-02-14T00:43:34;100563.56;;;2.57;100.00
40315;BME280;26021;45.640;11.302;2023-02-14T00:45:59;100551.09;;;2.43;100.00
40315;BME280;26021;45.640;11.302;2023-02-14T00:48:24;100552.63;;;2.32;100.00
40315;BME280;26021;45.640;11.302;2023-02-14T00:50:50;100537.03;;;2.43;100.00
40315;BME280;26021;45.640;11.302;2023-02-14T00:53:16;100489.69;;;2.24;100.00
40315;BME280;26021;45.640;11.302;2023-02-14T00:55:44;100542.25;;;2.60;100.00
40315;BME280;26021;45.640;11.302;2023-02-14T00:58:10;100551.09;;;2.59;100.00
40315;BME280;26021;45.640;11.302;2023-02-14T01:00:35;100542.50;;;2.40;100.00
40315;BME280;26021;45.640;11.302;2023-02-14T01:03:01;100549.06;;;2.48;100.00
40315;BME280;26021;45.640;11.302;2023-02-14T01:05:26;100543.44;;;2.39;100.00
40315;BME280;26021;45.640;11.302;2023-02-14T01:07:51;100486.53;;;1.84;100.00
40315;BME280;26021;45.640;11.302;2023-02-14T01:10:17;100545.34;;;2.19;100.00
40315;BME280;26021;45.640;11.302;2023-02-14T01:12:42;100541.53;;;2.25;100.00
40315;BME280;26021;45.640;11.302;2023-02-14T01:15:08;100534.22;;;2.30;100.00
40315;BME280;26021;45.640;11.302;2023-02-14T01:17:33;100536.41;;;2.22;100.00
40315;BME280;26021;45.640;11.302;2023-02-14T01:19:59;100533.56;;;2.42;100.00
40315;BME280;26021;45.640;11.302;2023-02-14T01:22:24;100537.38;;;2.52;100.00
40315;BME280;26021;45.640;11.302;2023-02-14T01:24:50;100532.63;;;2.43;100.00
40315;BME280;26021;45.640;11.302;2023-02-14T01:27:15;100519.91;;;2.34;100.00
40315;BME280;26021;45.640;11.302;2023-02-14T01:29:41;100422.09;;;1.73;100.00
40315;BME280;26021;45.640;11.302;2023-02-14T01:32:06;100524.44;;;2.32;100.00
40315;BME280;26021;45.640;11.302;2023-02-14T01:34:32;100504.16;;;2.33;100.00
40315;BME280;26021;45.640;11.302;2023-02-14T01:36:57;100487.69;;;2.12;100.00
40315;BME280;26021;45.640;11.302;2023-02-14T01:39:23;100472.13;;;1.74;100.00
40315;BME280;26021;45.640;11.302;2023-02-14T01:41:48;100508.59;;;1.99;100.00
40315;BME280;26021;45.640;11.302;2023-02-14T01:46:40;100511.94;;;2.03;100.00
40315;BME280;26021;45.640;11.302;2023-02-14T01:49:13;100508.69;;;1.98;100.00
40315;BME280;26021;45.640;11.302;2023-02-14T01:52:00;100506.88;;;1.82;100.00
40315;BME280;26021;45.640;11.302;2023-02-14T01:54:27;100503.81;;;2.23;100.00
40315;BME280;26021;45.640;11.302;2023-02-14T01:56:57;100351.72;;;1.24;100.00
40315;BME280;26021;45.640;11.302;2023-02-14T01:59:30;100479.16;;;2.22;100.00
40315;BME280;26021;45.640;11.302;2023-02-14T02:01:58;100493.44;;;2.36;100.00
40315;BME280;26021;45.640;11.302;2023-02-14T02:04:29;100491.56;;;2.38;100.00
40315;BME280;26021;45.640;11.302;2023-02-14T02:06:58;100491.78;;;2.17;100.00
40315;BME280;26021;45.640;11.302;2023-02-14T02:12:01;100488.84;;;1.90;100.00
40315;BME280;26021;45.640;11.302;2023-02-14T02:14:27;100493.59;;;1.84;100.00
40315;BME280;26021;45.640;11.302;2023-02-14T02:47:57;100470.81;;;2.14;100.00
40315;BME280;26021;45.640;11.302;2023-02-14T02:50:32;100411.03;;;1.82;100.00
40315;BME280;26021;45.640;11.302;2023-02-14T02:53:22;100463.84;;;2.13;100.00
40315;BME280;26021;45.640;11.302;2023-02-14T02:55:57;100460.00;;;2.03;100.00
40315;BME280;26021;45.640;11.302;2023-02-14T02:58:48;100428.16;;;1.90;100.00
40315;BME280;26021;45.640;11.302;2023-02-14T03:01:20;100464.00;;;1.95;100.00
40315;BME280;26021;45.640;11.302;2023-02-14T03:03:52;100461.31;;;1.79;100.00
40315;BME280;26021;45.640;11.302;2023-02-14T03:06:39;100444.38;;;1.67;100.00
40315;BME280;26021;45.640;11.302;2023-02-14T03:20:59;100477.28;;;1.93;100.00
40315;BME280;26021;45.640;11.302;2023-02-14T03:26:04;100490.72;;;1.88;100.00
40315;BME280;26021;45.640;11.302;2023-02-14T03:29:18;100493.16;;;1.76;100.00
40315;BME280;26021;45.640;11.302;2023-02-14T03:34:00;100454.72;;;1.54;100.00
40315;BME280;26021;45.640;11.302;2023-02-14T03:36:38;100397.59;;;1.20;100.00
40315;BME280;26021;45.640;11.302;2023-02-14T03:39:27;100494.16;;;1.73;100.00
40315;BME280;26021;45.640;11.302;2023-02-14T03:42:00;100481.38;;;1.66;100.00
40315;BME280;26021;45.640;11.302;2023-02-14T03:44:29;100495.47;;;1.82;100.00
40315;BME280;26021;45.640;11.302;2023-02-14T03:47:01;100431.88;;;1.20;100.00
40315;BME280;26021;45.640;11.302;2023-02-14T03:49:29;100424.88;;;1.37;100.00
40315;BME280;26021;45.640;11.302;2023-02-14T03:51:58;100504.81;;;1.54;100.00
40315;BME280;26021;45.640;11.302;2023-02-14T03:54:26;100502.00;;;1.75;100.00
40315;BME280;26021;45.640;11.302;2023-02-14T03:57:00;100502.72;;;1.94;100.00
40315;BME280;26021;45.640;11.302;2023-02-14T03:59:28;100495.00;;;2.07;100.00
40315;BME280;26021;45.640;11.302;2023-02-14T04:02:00;100493.94;;;1.94;100.00
40315;BME280;26021;45.640;11.302;2023-02-14T04:04:32;100443.47;;;1.51;100.00
40315;BME280;26021;45.640;11.302;2023-02-14T04:07:11;100502.72;;;1.94;100.00
40315;BME280;26021;45.640;11.302;2023-02-14T04:09:37;100508.69;;;1.98;100.00
40315;BME280;26021;45.640;11.302;2023-02-14T04:12:02;100503.53;;;1.79;100.00
40315;BME280;26021;45.640;11.302;2023-02-14T04:14:28;100506.91;;;1.65;100.00
40315;BME280;26021;45.640;11.302;2023-02-14T04:16:54;100501.38;;;1.70;100.00
40315;BME280;26021;45.640;11.302;2023-02-14T04:19:38;100511.63;;;1.76;100.00
40315;BME280;26021;45.640;11.302;2023-02-14T04:22:03;100508.78;;;1.63;100.00
40315;BME280;26021;45.640;11.302;2023-02-14T04:24:29;100510.22;;;1.69;100.00
40315;BME280;26021;45.640;11.302;2023-02-14T04:26:54;100514.81;;;1.65;100.00
40315;BME280;26021;45.640;11.302;2023-02-14T04:32:02;100517.31;;;1.51;100.00
40315;BME280;26021;45.640;11.302;2023-02-14T04:34:27;100511.47;;;1.62;100.00
40315;BME280;26021;45.640;11.302;2023-02-14T04:36:53;100513.31;;;1.77;100.00
40315;BME280;26021;45.640;11.302;2023-02-14T04:39:18;100468.34;;;1.45;100.00
40315;BME280;26021;45.640;11.302;2023-02-14T04:41:44;100508.69;;;1.65;100.00
40315;BME280;26021;45.640;11.302;2023-02-14T04:44:09;100514.91;;;1.64;100.00
40315;BME280;26021;45.640;11.302;2023-02-14T04:46:35;100505.44;;;1.59;100.00
40315;BME280;26021;45.640;11.302;2023-02-14T04:49:00;100427.84;;;1.13;100.00
40315;BME280;26021;45.640;11.302;2023-02-14T04:51:26;100500.16;;;1.59;100.00
40315;BME280;26021;45.640;11.302;2023-02-14T04:53:51;100503.50;;;1.63;100.00
40315;BME280;26021;45.640;11.302;2023-02-14T04:56:16;100501.25;;;1.55;100.00
40315;BME280;26021;45.640;11.302;2023-02-14T04:58:42;100504.75;;;1.56;100.00
40315;BME280;26021;45.640;11.302;2023-02-14T05:01:07;100483.69;;;1.72;100.00
40315;BME280;26021;45.640;11.302;2023-02-14T05:03:33;100485.56;;;1.70;100.00
40315;BME280;26021;45.640;11.302;2023-02-14T05:05:58;100485.34;;;1.57;100.00
40315;BME280;26021;45.640;11.302;2023-02-14T05:08:23;100479.84;;;1.62;100.00
40315;BME280;26021;45.640;11.302;2023-02-14T05:10:49;100474.31;;;1.66;100.00
40315;BME280;26021;45.640;11.302;2023-02-14T05:13:14;100478.13;;;1.43;100.00
40315;BME280;26021;45.640;11.302;2023-02-14T05:15:43;100493.50;;;1.35;100.00
40315;BME280;26021;45.640;11.302;2023-02-14T05:18:09;100491.47;;;1.23;100.00
40315;BME280;26021;45.640;11.302;2023-02-14T05:20:34;100484.81;;;1.33;100.00
40315;BME280;26021;45.640;11.302;2023-02-14T05:23:00;100474.09;;;1.36;100.00
40315;BME280;26021;45.640;11.302;2023-02-14T05:25:28;100175.44;;;-0.31;100.00
40315;BME280;26021;45.640;11.302;2023-02-14T05:27:54;100468.06;;;1.51;100.00
40315;BME280;26021;45.640;11.302;2023-02-14T05:30:20;100475.91;;;1.53;100.00
40315;BME280;26021;45.640;11.302;2023-02-14T05:32:50;100471.56;;;1.52;100.00
40315;BME280;26021;45.640;11.302;2023-02-14T05:35:16;100436.16;;;1.06;100.00
40315;BME280;26021;45.640;11.302;2023-02-14T05:37:41;100472.34;;;1.19;100.00
40315;BME280;26021;45.640;11.302;2023-02-14T05:40:07;100477.06;;;1.30;100.00
40315;BME280;26021;45.640;11.302;2023-02-14T05:42:33;100440.13;;;1.47;100.00
40315;BME280;26021;45.640;11.302;2023-02-14T05:44:58;100469.22;;;1.46;100.00
40315;BME280;26021;45.640;11.302;2023-02-14T05:47:24;100458.38;;;1.35;100.00
40315;BME280;26021;45.640;11.302;2023-02-14T05:49:49;100471.16;;;1.25;100.00
40315;BME280;26021;45.640;11.302;2023-02-14T05:52:15;100447.69;;;1.20;100.00
40315;BME280;26021;45.640;11.302;2023-02-14T05:54:40;100464.00;;;1.62;100.00
40315;BME280;26021;45.640;11.302;2023-02-14T05:57:06;100449.44;;;1.37;100.00
40315;BME280;26021;45.640;11.302;2023-02-14T05:59:31;100438.06;;;1.19;100.00
40315;BME280;26021;45.640;11.302;2023-02-14T06:01:56;100465.25;;;1.37;100.00
40315;BME280;26021;45.640;11.302;2023-02-14T06:04:22;100462.38;;;1.42;100.00
40315;BME280;26021;45.640;11.302;2023-02-14T06:06:47;100402.75;;;0.89;100.00
40315;BME280;26021;45.640;11.302;2023-02-14T06:09:13;100468.00;;;1.18;100.00
40315;BME280;26021;45.640;11.302;2023-02-14T06:11:39;100464.25;;;1.40;100.00
40315;BME280;26021;45.640;11.302;2023-02-14T06:14:04;100466.72;;;1.43;100.00
40315;BME280;26021;45.640;11.302;2023-02-14T06:16:30;100469.00;;;1.33;100.00
40315;BME280;26021;45.640;11.302;2023-02-14T06:18:55;100424.75;;;1.05;100.00
40315;BME280;26021;45.640;11.302;2023-02-14T06:21:21;100454.59;;;1.23;100.00
40315;BME280;26021;45.640;11.302;2023-02-14T06:23:46;100477.44;;;1.57;100.00
40315;BME280;26021;45.640;11.302;2023-02-14T06:26:11;100469.69;;;1.37;100.00
40315;BME280;26021;45.640;11.302;2023-02-14T06:28:37;100410.88;;;1.02;100.00
40315;BME280;26021;45.640;11.302;2023-02-14T06:31:02;100486.13;;;1.42;100.00
40315;BME280;26021;45.640;11.302;2023-02-14T06:33:28;100462.56;;;1.21;100.00
40315;BME280;26021;45.640;11.302;2023-02-14T06:35:53;100483.78;;;1.36;100.00
40315;BME280;26021;45.640;11.302;2023-02-14T06:38:19;100496.44;;;1.29;100.00
40315;BME280;26021;45.640;11.302;2023-02-14T06:40:44;100497.91;;;1.35;100.00
40315;BME280;26021;45.640;11.302;2023-02-14T06:43:10;100281.53;;;0.04;100.00
40315;BME280;26021;45.640;11.302;2023-02-14T06:45:35;100477.88;;;1.48;100.00
40315;BME280;26021;45.640;11.302;2023-02-14T06:48:01;100494.28;;;1.54;100.00
40315;BME280;26021;45.640;11.302;2023-02-14T06:50:26;100492.25;;;1.59;100.00
40315;BME280;26021;45.640;11.302;2023-02-14T06:52:51;100509.78;;;1.61;100.00
40315;BME280;26021;45.640;11.302;2023-02-14T06:55:17;100498.38;;;1.60;100.00
40315;BME280;26021;45.640;11.302;2023-02-14T06:57:43;100479.50;;;1.68;100.00
40315;BME280;26021;45.640;11.302;2023-02-14T07:00:09;100534.75;;;1.71;100.00
40315;BME280;26021;45.640;11.302;2023-02-14T07:02:34;100492.88;;;1.65;100.00
40315;BME280;26021;45.640;11.302;2023-02-14T07:05:00;100446.13;;;1.34;100.00
40315;BME280;26021;45.640;11.302;2023-02-14T07:07:25;100507.00;;;2.12;100.00
40315;BME280;26021;45.640;11.302;2023-02-14T07:09:51;100508.94;;;2.26;100.00
40315;BME280;26021;45.640;11.302;2023-02-14T07:12:16;100498.94;;;1.82;100.00
40315;BME280;26021;45.640;11.302;2023-02-14T07:14:41;100503.75;;;2.07;100.00
40315;BME280;26021;45.640;11.302;2023-02-14T07:17:07;100512.13;;;2.15;100.00
40315;BME280;26021;45.640;11.302;2023-02-14T07:19:32;100514.59;;;2.18;100.00
40315;BME280;26021;45.640;11.302;2023-02-14T07:21:58;100505.88;;;2.34;100.00
40315;BME280;26021;45.640;11.302;2023-02-14T07:24:23;100505.56;;;3.01;100.00
40315;BME280;26021;45.640;11.302;2023-02-14T07:26:49;100506.75;;;3.11;100.00
40315;BME280;26021;45.640;11.302;2023-02-14T07:29:14;100512.03;;;3.11;100.00
40315;BME280;26021;45.640;11.302;2023-02-14T07:31:39;100511.25;;;3.39;100.00
40315;BME280;26021;45.640;11.302;2023-02-14T07:34:05;100508.81;;;3.50;100.00
40315;BME280;26021;45.640;11.302;2023-02-14T07:36:30;100508.47;;;3.71;100.00
40315;BME280;26021;45.640;11.302;2023-02-14T07:38:56;100502.75;;;4.07;100.00
40315;BME280;26021;45.640;11.302;2023-02-14T07:41:22;100498.78;;;4.14;100.00
40315;BME280;26021;45.640;11.302;2023-02-14T07:43:47;100501.56;;;4.39;100.00
40315;BME280;26021;45.640;11.302;2023-02-14T07:46:12;100502.22;;;4.57;100.00
40315;BME280;26021;45.640;11.302;2023-02-14T07:48:38;100499.38;;;4.87;100.00
40315;BME280;26021;45.640;11.302;2023-02-14T07:51:03;100503.13;;;4.97;100.00
40315;BME280;26021;45.640;11.302;2023-02-14T07:53:29;100498.78;;;5.23;100.00
40315;BME280;26021;45.640;11.302;2023-02-14T07:55:55;100484.81;;;5.47;100.00
40315;BME280;26021;45.640;11.302;2023-02-14T07:58:21;100491.31;;;6.06;100.00
40315;BME280;26021;45.640;11.302;2023-02-14T08:00:47;100489.22;;;5.98;100.00
40315;BME280;26021;45.640;11.302;2023-02-14T08:03:13;100482.72;;;5.90;100.00
40315;BME280;26021;45.640;11.302;2023-02-14T08:05:39;100481.22;;;6.11;100.00
40315;BME280;26021;45.640;11.302;2023-02-14T08:08:04;100482.78;;;6.63;100.00
40315;BME280;26021;45.640;11.302;2023-02-14T08:10:30;100420.50;;;6.30;100.00
40315;BME280;26021;45.640;11.302;2023-02-14T08:12:55;100483.44;;;6.90;100.00
40315;BME280;26021;45.640;11.302;2023-02-14T08:15:25;100479.53;;;7.07;100.00
40315;BME280;26021;45.640;11.302;2023-02-14T08:18:09;100492.28;;;7.26;100.00
40315;BME280;26021;45.640;11.302;2023-02-14T08:20:34;100488.06;;;6.99;100.00
40315;BME280;26021;45.640;11.302;2023-02-14T08:23:00;100458.19;;;6.96;100.00
40315;BME280;26021;45.640;11.302;2023-02-14T08:25:25;100443.34;;;7.05;100.00
40315;BME280;26021;45.640;11.302;2023-02-14T08:27:51;100485.66;;;7.31;98.80
40315;BME280;26021;45.640;11.302;2023-02-14T08:30:16;100476.00;;;7.42;95.81
40315;BME280;26021;45.640;11.302;2023-02-14T08:32:42;100477.91;;;7.63;93.00
40315;BME280;26021;45.640;11.302;2023-02-14T08:35:08;100441.41;;;7.42;95.12
40315;BME280;26021;45.640;11.302;2023-02-14T08:37:33;100484.06;;;7.64;97.60
40315;BME280;26021;45.640;11.302;2023-02-14T08:39:59;100474.53;;;7.95;93.47
40315;BME280;26021;45.640;11.302;2023-02-14T08:42:24;100477.66;;;7.78;91.44
40315;BME280;26021;45.640;11.302;2023-02-14T08:44:49;100462.91;;;7.74;93.58
40315;BME280;26021;45.640;11.302;2023-02-14T08:47:15;100466.31;;;7.98;92.83
40315;BME280;26021;45.640;11.302;2023-02-14T08:49:41;100428.16;;;7.86;93.00
40315;BME280;26021;45.640;11.302;2023-02-14T08:52:06;100214.16;;;6.64;91.04
40315;BME280;26021;45.640;11.302;2023-02-14T08:54:31;100452.03;;;8.21;89.27
40315;BME280;26021;45.640;11.302;2023-02-14T08:56:57;100405.25;;;8.06;87.70
40315;BME280;26021;45.640;11.302;2023-02-14T08:59:23;100390.34;;;8.15;88.11
40315;BME280;26021;45.640;11.302;2023-02-14T09:01:48;100452.09;;;8.65;86.56
40315;BME280;26021;45.640;11.302;2023-02-14T09:04:13;100450.41;;;8.64;86.46
40315;BME280;26021;45.640;11.302;2023-02-14T09:06:39;100448.97;;;8.91;87.14
40315;BME280;26021;45.640;11.302;2023-02-14T09:09:05;100447.19;;;8.92;84.82
40315;BME280;26021;45.640;11.302;2023-02-14T09:11:30;100441.53;;;9.48;80.61
40315;BME280;26021;45.640;11.302;2023-02-14T09:13:56;100391.91;;;9.45;76.29
40315;BME280;26021;45.640;11.302;2023-02-14T09:16:23;100437.41;;;10.46;75.10
40315;BME280;26021;45.640;11.302;2023-02-14T09:18:50;100441.66;;;10.68;70.25
40315;BME280;26021;45.640;11.302;2023-02-14T09:21:23;100437.84;;;10.71;71.77
40315;BME280;26021;45.640;11.302;2023-02-14T09:23:48;100435.47;;;10.97;70.14
40315;BME280;26021;45.640;11.302;2023-02-14T09:26:14;100424.91;;;10.86;72.60
40315;BME280;26021;45.640;11.302;2023-02-14T09:28:41;100394.81;;;10.34;69.64
40315;BME280;26021;45.640;11.302;2023-02-14T09:31:09;100423.41;;;10.33;73.25
40315;BME280;26021;45.640;11.302;2023-02-14T09:33:35;100413.75;;;10.11;74.00
40315;BME280;26021;45.640;11.302;2023-02-14T09:36:00;100427.75;;;10.34;73.54
40315;BME280;26021;45.640;11.302;2023-02-14T09:38:45;100275.75;;;9.30;73.86
40315;BME280;26021;45.640;11.302;2023-02-14T09:41:47;100429.78;;;10.11;73.78
40315;BME280;26021;45.640;11.302;2023-02-14T09:44:53;100432.53;;;10.31;73.68
40315;BME280;26021;45.640;11.302;2023-02-14T09:47:29;100429.84;;;10.21;73.06
40315;BME280;26021;45.640;11.302;2023-02-14T09:49:58;100431.53;;;10.22;73.63
40315;BME280;26021;45.640;11.302;2023-02-14T09:52:29;100430.78;;;10.41;73.41
40315;BME280;26021;45.640;11.302;2023-02-14T09:54:57;100422.16;;;10.37;71.55
40315;BME280;26021;45.640;11.302;2023-02-14T10:13:12;100403.47;;;10.57;70.57
40315;BME280;26021;45.640;11.302;2023-02-14T10:16:01;100399.81;;;10.58;68.29
40315;BME280;26021;45.640;11.302;2023-02-14T10:21:06;100409.41;;;10.79;67.29
40315;BME280;26021;45.640;11.302;2023-02-14T10:23:34;100406.31;;;10.84;70.00
40315;BME280;26021;45.640;11.302;2023-02-14T10:26:05;100404.91;;;10.90;71.18
40315;BME280;26021;45.640;11.302;2023-02-14T10:28:36;100396.31;;;11.05;71.67
40315;BME280;26021;45.640;11.302;2023-02-14T10:31:56;100385.88;;;11.12;73.24
40315;BME280;26021;45.640;11.302;2023-02-14T10:34:37;100393.06;;;11.11;73.27
40315;BME280;26021;45.640;11.302;2023-02-14T10:37:20;100382.34;;;11.11;72.43
40315;BME280;26021;45.640;11.302;2023-02-14T10:47:40;100367.22;;;11.39;69.81
40315;BME280;26021;45.640;11.302;2023-02-14T10:55:45;100352.88;;;11.68;70.38
40315;BME280;26021;45.640;11.302;2023-02-14T10:58:15;100348.38;;;11.68;70.44
40315;BME280;26021;45.640;11.302;2023-02-14T11:01:04;100347.91;;;11.92;69.37
40315;BME280;26021;45.640;11.302;2023-02-14T11:03:32;100329.97;;;11.93;67.84
40315;BME280;26021;45.640;11.302;2023-02-14T11:05:59;100275.72;;;11.71;67.99
40315;BME280;26021;45.640;11.302;2023-02-14T11:08:31;100324.78;;;12.09;66.02
40315;BME280;26021;45.640;11.302;2023-02-14T11:13:56;100068.44;;;10.72;65.53
40315;BME280;26021;45.640;11.302;2023-02-14T11:16:30;100281.34;;;12.05;65.50
40315;BME280;26021;45.640;11.302;2023-02-14T11:19:17;100306.13;;;12.35;66.01
40315;BME280;26021;45.640;11.302;2023-02-14T11:21:44;100291.31;;;12.49;64.17
40315;BME280;26021;45.640;11.302;2023-02-14T11:24:31;100294.53;;;12.34;66.26
40315;BME280;26021;45.640;11.302;2023-02-14T11:27:13;100289.63;;;12.48;65.71
40315;BME280;26021;45.640;11.302;2023-02-14T11:34:38;100274.13;;;12.59;65.83
40315;BME280;26021;45.640;11.302;2023-02-14T11:37:25;100278.34;;;12.62;64.36
40315;BME280;26021;45.640;11.302;2023-02-14T11:39:53;100272.44;;;12.58;64.79
40315;BME280;26021;45.640;11.302;2023-02-14T11:45:04;100254.34;;;12.78;67.06
40315;BME280;26021;45.640;11.302;2023-02-14T11:47:33;100256.50;;;13.00;66.93
40315;BME280;26021;45.640;11.302;2023-02-14T11:50:02;100256.03;;;13.05;65.86
40315;BME280;26021;45.640;11.302;2023-02-14T11:52:31;100249.59;;;12.98;67.34
40315;BME280;26021;45.640;11.302;2023-02-14T11:54:58;100241.97;;;13.11;67.00
40315;BME280;26021;45.640;11.302;2023-02-14T11:57:36;100238.44;;;13.11;66.91
40315;BME280;26021;45.640;11.302;2023-02-14T12:00:15;100223.47;;;13.08;67.58
40315;BME280;26021;45.640;11.302;2023-02-14T12:02:44;100230.53;;;13.09;66.81
40315;BME280;26021;45.640;11.302;2023-02-14T12:07:45;100223.16;;;13.11;67.36
40315;BME280;26021;45.640;11.302;2023-02-14T12:10:19;100201.75;;;12.93;67.29
40315;BME280;26021;45.640;11.302;2023-02-14T12:12:54;100221.59;;;13.26;66.48
40315;BME280;26021;45.640;11.302;2023-02-14T12:15:28;100157.28;;;12.99;67.58
40315;BME280;26021;45.640;11.302;2023-02-14T12:23:14;100211.16;;;13.57;67.01
40315;BME280;26021;45.640;11.302;2023-02-14T12:25:47;100203.47;;;13.71;66.33
40315;BME280;26021;45.640;11.302;2023-02-14T12:28:18;100197.91;;;13.64;66.44
40315;BME280;26021;45.640;11.302;2023-02-14T12:30:48;100201.91;;;13.52;65.83
40315;BME280;26021;45.640;11.302;2023-02-14T12:33:19;100193.00;;;13.51;66.67
40315;BME280;26021;45.640;11.302;2023-02-14T12:35:59;100194.84;;;13.51;66.71
40315;BME280;26021;45.640;11.302;2023-02-14T12:43:46;100183.13;;;13.60;66.40
40315;BME280;26021;45.640;11.302;2023-02-14T13:21:53;100154.44;;;13.93;67.48
40315;BME280;26021;45.640;11.302;2023-02-14T13:24:22;100153.44;;;14.10;66.70
40315;BME280;26021;45.640;11.302;2023-02-14T13:26:53;100150.09;;;14.16;65.94
40315;BME280;26021;45.640;11.302;2023-02-14T13:29:21;100088.69;;;13.63;67.26
40315;BME280;26021;45.640;11.302;2023-02-14T13:31:49;100141.53;;;14.13;66.47
40315;BME280;26021;45.640;11.302;2023-02-14T13:34:27;100147.06;;;14.19;66.59
40315;BME280;26021;45.640;11.302;2023-02-14T13:36:56;100144.88;;;14.31;66.12
40315;BME280;26021;45.640;11.302;2023-02-14T13:39:33;100143.50;;;14.11;65.66
40315;BME280;26021;45.640;11.302;2023-02-14T13:42:00;100138.97;;;13.95;67.68
40315;BME280;26021;45.640;11.302;2023-02-14T13:47:04;100140.81;;;14.11;65.71
40315;BME280;26021;45.640;11.302;2023-02-14T13:49:35;100138.47;;;14.08;65.59
40315;BME280;26021;45.640;11.302;2023-02-14T13:52:04;100138.63;;;13.98;66.68
40315;BME280;26021;45.640;11.302;2023-02-14T13:59:45;100136.44;;;13.93;65.84
40315;BME280;26021;45.640;11.302;2023-02-14T14:04:51;100089.53;;;13.80;66.03
40315;BME280;26021;45.640;11.302;2023-02-14T14:07:27;100090.06;;;13.91;65.67
40315;BME280;26021;45.640;11.302;2023-02-14T14:10:00;100110.91;;;13.97;65.90
40315;BME280;26021;45.640;11.302;2023-02-14T14:17:33;100114.75;;;14.03;67.27
40315;BME280;26021;45.640;11.302;2023-02-14T14:20:01;100109.22;;;14.05;66.56
40315;BME280;26021;45.640;11.302;2023-02-14T14:22:28;100094.41;;;13.92;66.91
40315;BME280;26021;45.640;11.302;2023-02-14T14:25:00;100088.72;;;13.95;66.35
40315;BME280;26021;45.640;11.302;2023-02-14T14:27:32;100110.22;;;13.87;67.89
40315;BME280;26021;45.640;11.302;2023-02-14T14:30:05;100102.16;;;13.79;68.44
40315;BME280;26021;45.640;11.302;2023-02-14T14:32:36;100101.31;;;13.87;68.36
40315;BME280;26021;45.640;11.302;2023-02-14T14:35:19;100097.78;;;13.78;68.39
40315;BME280;26021;45.640;11.302;2023-02-14T14:37:53;100082.66;;;13.69;68.31
40315;BME280;26021;45.640;11.302;2023-02-14T14:40:31;100039.97;;;13.42;68.31
40315;BME280;26021;45.640;11.302;2023-02-14T14:43:12;100092.72;;;13.59;69.24
40315;BME280;26021;45.640;11.302;2023-02-14T14:45:39;100067.34;;;13.45;70.01
40315;BME280;26021;45.640;11.302;2023-02-14T14:48:23;100088.69;;;13.55;70.23
40315;BME280;26021;45.640;11.302;2023-02-14T14:51:25;100084.81;;;13.41;70.63
40315;BME280;26021;45.640;11.302;2023-02-14T14:56:55;100012.66;;;13.12;70.07
40315;BME280;26021;45.640;11.302;2023-02-14T14:59:33;100079.53;;;13.31;71.23
40315;BME280;26021;45.640;11.302;2023-02-14T15:02:23;100087.66;;;13.05;72.89
40315;BME280;26021;45.640;11.302;2023-02-14T15:04:50;100083.94;;;12.98;73.30
40315;BME280;26021;45.640;11.302;2023-02-14T15:07:25;100078.47;;;13.16;73.18
40315;BME280;26021;45.640;11.302;2023-02-14T15:09:57;100016.06;;;12.72;72.92
40315;BME280;26021;45.640;11.302;2023-02-14T15:12:23;100076.03;;;12.89;73.95
40315;BME280;26021;45.640;11.302;2023-02-14T15:15:13;100079.00;;;12.78;74.67
40315;BME280;26021;45.640;11.302;2023-02-14T15:17:40;100065.44;;;12.53;75.70
40315;BME280;26021;45.640;11.302;2023-02-14T15:20:16;100088.03;;;12.68;75.29
40315;BME280;26021;45.640;11.302;2023-02-14T15:22:44;99866.72;;;11.27;75.65
40315;BME280;26021;45.640;11.302;2023-02-14T15:25:18;100091.00;;;12.39;77.24
40315;BME280;26021;45.640;11.302;2023-02-14T15:27:44;100087.03;;;12.18;78.92
40315;BME280;26021;45.640;11.302;2023-02-14T15:32:49;100089.00;;;12.16;78.71
40315;BME280;26021;45.640;11.302;2023-02-14T15:35:17;100063.41;;;11.95;79.24
40315;BME280;26021;45.640;11.302;2023-02-14T15:37:46;100092.22;;;12.19;78.97
40315;BME280;26021;45.640;11.302;2023-02-14T15:40:20;100059.00;;;11.76;80.75